Terminal Aerodrome Forecast
Issued by NWS San Angelo, TX

Home | Current Version | Previous Version | Text Only | Print | Product List | Glossary On
Versions: 1 2 3 4 5 6 7 8 9 10 11 12 13 14 15 16 17 18 19 20 21 22 23
000
FTUS44 KSJT 270500
TAFSJT
TAF
KSJT 270523Z 2706/2806 35014G24KT P6SM VCSH SCT150
     FM270800 31011G17KT P6SM SCT150
     FM271200 23009KT P6SM BKN250
     FM272000 26013G20KT P6SM SCT250
     FM280300 34014G20KT P6SM BKN080=

USA.gov is the U.S. government's official web portal to all federal, state and local government web resources and services.